createdAt,value
2023-09-20T00:00:08.846Z,99.90
2023-09-20T00:02:56.155Z,99.90
2023-09-20T00:05:44.390Z,99.90
2023-09-20T00:08:31.416Z,99.90
2023-09-20T00:11:20.105Z,99.90
2023-09-20T00:14:07.325Z,99.90
2023-09-20T00:16:54.245Z,99.90
2023-09-20T00:19:43.782Z,99.90
2023-09-20T00:22:30.756Z,99.90
2023-09-20T00:25:18.082Z,99.90
2023-09-20T00:28:05.436Z,99.90
2023-09-20T00:30:54.064Z,99.90
2023-09-20T00:33:40.968Z,99.90
2023-09-20T00:36:27.853Z,99.90
2023-09-20T00:39:15.748Z,99.90
2023-09-20T00:42:02.863Z,99.90
2023-09-20T00:44:49.718Z,99.90
2023-09-20T00:47:41.806Z,99.90
2023-09-20T00:50:32.766Z,99.90
2023-09-20T00:53:21.923Z,99.90
2023-09-20T00:56:10.979Z,99.90
2023-09-20T00:58:58.276Z,99.90
2023-09-20T01:01:46.111Z,99.90
2023-09-20T01:04:34.908Z,99.90
2023-09-20T01:07:22.677Z,99.90
2023-09-20T01:10:10.769Z,99.90
2023-09-20T01:13:08.337Z,99.90
2023-09-20T01:15:55.324Z,99.90
2023-09-20T01:18:45.673Z,99.90
2023-09-20T01:21:40.244Z,99.90
2023-09-20T01:24:30.256Z,99.90
2023-09-20T01:27:17.280Z,99.90
2023-09-20T01:30:04.622Z,99.90
2023-09-20T01:32:53.306Z,99.90
2023-09-20T01:35:40.202Z,99.90
2023-09-20T01:38:27.406Z,99.90
2023-09-20T01:41:14.830Z,99.90
2023-09-20T01:44:01.741Z,99.90
2023-09-20T01:46:50.069Z,99.90
2023-09-20T01:49:37.179Z,99.90
2023-09-20T01:52:25.670Z,99.90
2023-09-20T01:55:16.374Z,99.90
2023-09-20T01:58:07.311Z,99.90
2023-09-20T02:00:54.558Z,99.90
2023-09-20T02:03:41.642Z,99.90
2023-09-20T02:06:28.697Z,99.90
2023-09-20T02:09:15.872Z,99.90
2023-09-20T02:12:03.445Z,99.90
2023-09-20T02:14:50.380Z,99.90
2023-09-20T02:17:37.693Z,99.90
2023-09-20T02:20:25.949Z,99.90
2023-09-20T02:23:16.613Z,99.90
2023-09-20T02:26:03.579Z,99.90
2023-09-20T02:28:52.403Z,99.90
2023-09-20T02:31:39.318Z,99.90
2023-09-20T02:34:26.283Z,99.90
2023-09-20T02:37:13.135Z,99.90
2023-09-20T02:39:59.971Z,99.90
2023-09-20T02:42:49.423Z,99.90
2023-09-20T02:45:37.581Z,99.90
2023-09-20T02:48:25.979Z,99.90
2023-09-20T02:51:12.845Z,99.90
2023-09-20T02:54:00.581Z,99.90
2023-09-20T02:56:47.377Z,99.90
2023-09-20T02:59:34.899Z,99.90
2023-09-20T03:02:22.009Z,99.90
2023-09-20T03:05:09.322Z,99.90
2023-09-20T03:07:57.184Z,99.90
2023-09-20T03:10:44.006Z,99.90
2023-09-20T03:13:31.609Z,99.90
2023-09-20T03:16:22.480Z,99.90
2023-09-20T03:19:12.488Z,99.90
2023-09-20T03:22:02.404Z,99.90
2023-09-20T03:24:49.373Z,99.90
2023-09-20T03:27:37.369Z,99.90
2023-09-20T03:30:24.258Z,99.90
2023-09-20T03:33:12.433Z,99.90
2023-09-20T03:36:03.462Z,99.90
2023-09-20T03:38:50.451Z,99.90
2023-09-20T03:41:39.764Z,99.90
2023-09-20T03:44:26.738Z,99.90
2023-09-20T03:47:13.710Z,99.90
2023-09-20T03:50:00.721Z,99.90
2023-09-20T03:52:47.877Z,99.90
2023-09-20T03:55:35.643Z,99.90
2023-09-20T03:58:22.443Z,99.90
2023-09-20T04:01:13.266Z,99.90
2023-09-20T04:04:00.494Z,99.90
2023-09-20T04:06:47.361Z,99.90
2023-09-20T04:09:36.396Z,99.90
2023-09-20T04:12:24.495Z,99.90
2023-09-20T04:15:14.914Z,99.90
2023-09-20T04:18:09.947Z,99.90
2023-09-20T04:20:57.062Z,99.90
2023-09-20T04:23:43.996Z,99.90
2023-09-20T04:26:30.992Z,99.90
2023-09-20T04:29:18.165Z,99.90
2023-09-20T04:32:08.018Z,99.90
2023-09-20T04:34:55.565Z,99.90
2023-09-20T04:37:42.509Z,99.90
2023-09-20T04:40:29.402Z,99.90
2023-09-20T04:43:16.355Z,99.90
2023-09-20T04:46:05.374Z,99.90
2023-09-20T04:48:52.296Z,99.90
2023-09-20T04:51:39.325Z,99.90
2023-09-20T04:54:26.577Z,99.90
2023-09-20T04:57:14.236Z,99.90
2023-09-20T05:00:01.133Z,99.90
2023-09-20T05:02:48.425Z,99.90
2023-09-20T05:05:35.926Z,99.90
2023-09-20T05:08:23.041Z,99.90
2023-09-20T05:11:11.831Z,99.90
2023-09-20T05:13:58.774Z,99.90
2023-09-20T05:16:45.652Z,99.90
2023-09-20T05:19:32.528Z,99.90
2023-09-20T05:22:20.384Z,99.90
2023-09-20T05:25:11.288Z,99.90
2023-09-20T05:27:58.696Z,99.90
2023-09-20T05:30:48.096Z,99.90
2023-09-20T05:33:36.599Z,99.90
2023-09-20T05:36:24.350Z,99.90
2023-09-20T05:39:13.553Z,99.90
2023-09-20T05:42:00.820Z,99.90
2023-09-20T05:44:47.801Z,99.90
2023-09-20T05:47:34.828Z,99.90
2023-09-20T05:50:28.577Z,99.90
2023-09-20T05:53:15.851Z,99.90
2023-09-20T05:56:08.865Z,99.90
2023-09-20T05:58:55.703Z,99.90
2023-09-20T06:01:42.673Z,99.90
2023-09-20T06:04:30.253Z,99.90
2023-09-20T06:07:17.273Z,99.90
2023-09-20T06:10:05.816Z,99.90
2023-09-20T06:12:52.793Z,99.90
2023-09-20T06:15:40.361Z,99.90
2023-09-20T06:18:27.478Z,99.90
2023-09-20T06:21:15.925Z,99.90
2023-09-20T06:24:03.676Z,99.90
2023-09-20T06:26:50.460Z,99.90
2023-09-20T06:29:37.363Z,99.90
2023-09-20T06:32:24.988Z,99.90
2023-09-20T06:35:13.783Z,99.90
2023-09-20T06:38:02.018Z,99.90
2023-09-20T06:40:53.300Z,99.90
2023-09-20T06:43:40.344Z,99.90
2023-09-20T06:46:27.348Z,99.90
2023-09-20T06:49:14.286Z,99.90
2023-09-20T06:52:02.943Z,99.90
2023-09-20T06:54:49.941Z,99.90
2023-09-20T06:57:36.891Z,99.90
2023-09-20T07:00:28.097Z,99.90
2023-09-20T07:03:15.817Z,99.90
2023-09-20T07:06:03.922Z,99.90
2023-09-20T07:08:50.780Z,99.90
2023-09-20T07:11:38.423Z,99.90
2023-09-20T07:14:26.710Z,99.90
2023-09-20T07:17:13.642Z,99.90
2023-09-20T07:20:01.703Z,99.90
2023-09-20T07:22:52.324Z,99.90
2023-09-20T07:25:40.349Z,99.90
2023-09-20T07:28:27.357Z,99.90
2023-09-20T07:31:20.081Z,99.90
2023-09-20T07:34:08.128Z,99.90
2023-09-20T07:36:55.676Z,99.90
2023-09-20T07:39:42.775Z,99.90
2023-09-20T07:42:29.690Z,99.90
2023-09-20T07:45:16.846Z,99.90
2023-09-20T07:48:04.473Z,99.90
2023-09-20T07:50:52.217Z,99.90
2023-09-20T07:53:39.215Z,99.90
2023-09-20T07:56:26.658Z,99.90
2023-09-20T07:59:18.194Z,99.90
2023-09-20T08:02:05.111Z,99.90
2023-09-20T08:04:52.044Z,99.90
2023-09-20T08:07:39.585Z,99.90
2023-09-20T08:10:26.453Z,99.90
2023-09-20T08:13:13.720Z,99.90
2023-09-20T08:16:04.018Z,99.90
2023-09-20T08:19:10.107Z,99.90
2023-09-20T08:21:57.108Z,99.90
2023-09-20T08:25:02.788Z,99.90
2023-09-20T08:28:08.243Z,99.90
2023-09-20T08:31:13.828Z,99.90
2023-09-20T08:34:19.546Z,99.90
2023-09-20T08:37:26.113Z,99.90
2023-09-20T08:40:31.490Z,99.90
2023-09-20T08:43:37.104Z,99.90
2023-09-20T08:46:44.200Z,99.90
2023-09-20T08:49:50.969Z,99.90
2023-09-20T08:52:58.413Z,99.90
2023-09-20T08:56:03.832Z,99.90
2023-09-20T08:59:10.070Z,99.90
2023-09-20T09:01:57.204Z,99.90
2023-09-20T09:04:55.017Z,99.90
2023-09-20T09:07:41.914Z,99.90
2023-09-20T09:10:29.434Z,99.90
2023-09-20T09:13:16.522Z,99.90
2023-09-20T09:16:08.116Z,99.90
2023-09-20T09:18:56.356Z,99.90
2023-09-20T09:21:43.990Z,99.90
2023-09-20T09:24:47.309Z,99.90
2023-09-20T09:27:36.138Z,99.90
2023-09-20T09:30:23.788Z,99.90
2023-09-20T09:33:15.796Z,99.90
2023-09-20T09:36:06.031Z,99.90
2023-09-20T09:39:17.349Z,99.90
2023-09-20T09:42:11.391Z,99.90
2023-09-20T09:45:08.597Z,99.90
2023-09-20T09:48:05.829Z,99.90
2023-09-20T09:50:58.169Z,99.90
2023-09-20T09:53:46.975Z,99.90
2023-09-20T09:56:34.104Z,99.90
2023-09-20T09:59:21.044Z,99.90
2023-09-20T10:02:19.369Z,99.90
2023-09-20T10:05:11.499Z,99.90
2023-09-20T10:08:02.687Z,99.90
2023-09-20T10:10:50.382Z,99.90
2023-09-20T10:13:37.885Z,99.90
2023-09-20T10:16:26.200Z,99.90
2023-09-20T10:19:17.192Z,99.90
2023-09-20T10:22:10.018Z,99.90
2023-09-20T10:25:02.374Z,99.90
2023-09-20T10:27:53.695Z,99.90
2023-09-20T10:31:06.120Z,99.90
2023-09-20T10:33:56.491Z,99.90
2023-09-20T10:36:53.817Z,99.90
2023-09-20T10:39:43.925Z,99.90
2023-09-20T10:42:31.232Z,99.90
2023-09-20T10:45:19.246Z,99.90
2023-09-20T10:48:13.985Z,99.90
2023-09-20T10:51:04.817Z,99.90
2023-09-20T10:53:57.138Z,99.90
2023-09-20T10:57:05.718Z,99.90
2023-09-20T10:59:54.712Z,99.90
2023-09-20T11:02:43.845Z,99.90
2023-09-20T11:05:31.343Z,99.90
2023-09-20T11:08:18.624Z,99.90
2023-09-20T11:11:08.279Z,99.90
2023-09-20T11:13:55.512Z,99.70
2023-09-20T11:16:45.459Z,99.30
2023-09-20T11:19:34.003Z,98.60
2023-09-20T11:22:20.925Z,98.40
2023-09-20T11:25:08.312Z,98.00
2023-09-20T11:27:55.505Z,97.90
2023-09-20T11:30:44.848Z,97.60
2023-09-20T11:33:31.936Z,97.50
2023-09-20T11:36:20.541Z,97.30
2023-09-20T11:39:07.757Z,97.30
2023-09-20T11:42:00.622Z,97.10
2023-09-20T11:44:56.693Z,97.10
2023-09-20T11:47:44.735Z,97.00
2023-09-20T11:50:32.190Z,96.70
2023-09-20T11:53:20.187Z,96.50
2023-09-20T11:56:07.701Z,96.70
2023-09-20T11:58:57.459Z,96.60
2023-09-20T12:01:44.780Z,96.80
2023-09-20T12:04:31.729Z,96.80
2023-09-20T12:07:19.200Z,97.20
2023-09-20T12:10:08.002Z,97.50
2023-09-20T12:12:55.630Z,97.60
2023-09-20T12:15:44.456Z,97.80
2023-09-20T12:18:31.803Z,98.00
2023-09-20T12:21:19.731Z,98.30
2023-09-20T12:24:06.795Z,98.60
2023-09-20T12:26:55.445Z,98.90
2023-09-20T12:29:42.709Z,99.20
2023-09-20T12:32:30.474Z,99.70
2023-09-20T12:35:17.662Z,99.90
2023-09-20T12:38:04.720Z,99.90
2023-09-20T12:40:53.305Z,99.90
2023-09-20T12:43:40.607Z,99.90
2023-09-20T12:46:27.749Z,99.90
2023-09-20T12:49:14.657Z,99.90
2023-09-20T12:52:03.616Z,99.90
2023-09-20T12:54:50.732Z,99.90
2023-09-20T12:57:40.123Z,99.90
2023-09-20T13:00:43.006Z,99.90
2023-09-20T13:03:33.162Z,99.90
2023-09-20T13:06:20.048Z,99.90
2023-09-20T13:09:07.268Z,99.90
2023-09-20T13:11:54.251Z,99.90
2023-09-20T13:14:41.997Z,99.90
2023-09-20T13:17:29.145Z,99.90
2023-09-20T13:20:17.008Z,99.90
2023-09-20T13:23:05.042Z,99.90
2023-09-20T13:25:53.962Z,99.90
2023-09-20T13:28:42.739Z,99.90
2023-09-20T13:31:29.673Z,99.90
2023-09-20T13:34:17.392Z,99.90
2023-09-20T13:37:04.346Z,99.90
2023-09-20T13:39:51.174Z,99.90
2023-09-20T13:42:38.010Z,99.90
2023-09-20T13:45:27.016Z,99.90
2023-09-20T13:48:15.100Z,99.90
2023-09-20T13:51:02.723Z,99.90
2023-09-20T13:53:51.232Z,99.90
2023-09-20T13:56:39.405Z,99.90
2023-09-20T13:59:29.232Z,99.90
2023-09-20T14:02:16.664Z,99.90
2023-09-20T14:05:15.122Z,99.90
2023-09-20T14:08:02.053Z,99.90
2023-09-20T14:10:49.025Z,99.90
2023-09-20T14:13:36.036Z,99.90
2023-09-20T14:16:23.062Z,99.90
2023-09-20T14:19:10.389Z,99.90
2023-09-20T14:21:58.010Z,99.90
2023-09-20T14:24:44.861Z,99.90
2023-09-20T14:27:31.910Z,99.90
2023-09-20T14:30:20.150Z,99.90
2023-09-20T14:33:09.530Z,99.90
2023-09-20T14:35:59.945Z,99.90
2023-09-20T14:38:46.889Z,99.90
2023-09-20T14:41:35.577Z,99.90
2023-09-20T14:44:22.578Z,99.90
2023-09-20T14:47:09.473Z,99.90
2023-09-20T14:49:56.410Z,99.90
2023-09-20T14:52:44.957Z,99.90
2023-09-20T14:55:31.874Z,99.90
2023-09-20T14:58:19.193Z,99.90
2023-09-20T15:01:21.719Z,99.90
2023-09-20T15:04:08.629Z,99.90
2023-09-20T15:06:56.612Z,99.90
2023-09-20T15:09:47.782Z,99.90
2023-09-20T15:12:34.614Z,99.90
2023-09-20T15:15:23.542Z,99.90
2023-09-20T15:18:10.468Z,99.90
2023-09-20T15:20:57.489Z,99.90
2023-09-20T15:23:50.854Z,99.90
2023-09-20T15:26:37.817Z,99.90
2023-09-20T15:29:24.797Z,99.90
2023-09-20T15:32:13.279Z,99.90
2023-09-20T15:35:00.710Z,99.90
2023-09-20T15:37:49.126Z,99.90
2023-09-20T15:40:36.460Z,99.90
2023-09-20T15:43:23.419Z,99.90
2023-09-20T15:46:12.748Z,99.90
2023-09-20T15:48:59.797Z,99.90
2023-09-20T15:51:47.347Z,99.90
2023-09-20T15:54:34.693Z,99.90
2023-09-20T15:57:21.542Z,99.90
2023-09-20T16:00:14.627Z,99.90
2023-09-20T16:03:01.997Z,99.90
2023-09-20T16:05:49.802Z,99.90
2023-09-20T16:08:36.744Z,99.90
2023-09-20T16:11:23.566Z,99.90
2023-09-20T16:14:10.615Z,99.90
2023-09-20T16:16:57.641Z,99.90
2023-09-20T16:19:45.344Z,99.90
2023-09-20T16:22:32.415Z,99.90
2023-09-20T16:25:19.286Z,99.90
2023-09-20T16:28:06.555Z,99.90
2023-09-20T16:30:53.460Z,99.90
2023-09-20T16:33:41.567Z,99.90
2023-09-20T16:36:28.875Z,99.90
2023-09-20T16:39:16.861Z,99.90
2023-09-20T16:42:03.988Z,99.90
2023-09-20T16:44:51.190Z,99.90
2023-09-20T16:47:38.826Z,99.90
2023-09-20T16:50:25.730Z,99.90
2023-09-20T16:53:13.049Z,99.90
2023-09-20T16:55:59.859Z,99.90
2023-09-20T16:58:46.848Z,99.90
2023-09-20T17:01:34.180Z,99.90
2023-09-20T17:04:21.726Z,99.90
2023-09-20T17:07:10.062Z,99.90
2023-09-20T17:09:56.962Z,99.90
2023-09-20T17:12:43.813Z,99.90
2023-09-20T17:15:30.705Z,99.90
2023-09-20T17:18:17.641Z,99.90
2023-09-20T17:21:05.036Z,99.90
2023-09-20T17:23:52.145Z,99.90
2023-09-20T17:26:39.481Z,99.90
2023-09-20T17:29:26.424Z,99.90
2023-09-20T17:32:13.675Z,99.90
2023-09-20T17:35:00.933Z,99.90
2023-09-20T17:37:48.057Z,99.90
2023-09-20T17:40:34.875Z,99.90
2023-09-20T17:43:21.728Z,99.90
2023-09-20T17:46:11.177Z,99.90
2023-09-20T17:48:58.034Z,99.90
2023-09-20T17:51:45.586Z,99.90
2023-09-20T17:54:32.387Z,99.90
2023-09-20T17:57:19.326Z,99.90
2023-09-20T18:00:13.151Z,99.90
2023-09-20T18:03:00.129Z,99.90
2023-09-20T18:05:47.685Z,99.90
2023-09-20T18:08:34.587Z,99.90
2023-09-20T18:11:23.503Z,99.90
2023-09-20T18:14:11.054Z,99.90
2023-09-20T18:16:57.949Z,99.90
2023-09-20T18:19:47.592Z,99.90
2023-09-20T18:22:35.008Z,99.90
2023-09-20T18:25:22.037Z,99.90
2023-09-20T18:28:10.033Z,99.90
2023-09-20T18:30:56.884Z,99.90
2023-09-20T18:33:49.187Z,99.90
2023-09-20T18:36:36.582Z,99.90
2023-09-20T18:39:23.518Z,99.90
2023-09-20T18:42:10.644Z,99.90
2023-09-20T18:44:59.127Z,99.90
2023-09-20T18:47:46.289Z,99.90
2023-09-20T18:50:34.103Z,99.90
2023-09-20T18:53:21.769Z,99.90
2023-09-20T18:56:08.863Z,99.90
2023-09-20T18:58:58.878Z,99.90
2023-09-20T19:01:45.998Z,99.90
2023-09-20T19:04:33.381Z,99.90
2023-09-20T19:07:20.969Z,99.90
2023-09-20T19:10:08.401Z,99.90
2023-09-20T19:12:56.635Z,99.90
2023-09-20T19:15:43.663Z,99.90
2023-09-20T19:18:32.564Z,99.90
2023-09-20T19:21:19.501Z,99.90
2023-09-20T19:24:10.849Z,99.90
2023-09-20T19:26:57.961Z,99.90
2023-09-20T19:29:44.990Z,99.90
2023-09-20T19:32:33.363Z,99.90
2023-09-20T19:35:20.475Z,99.90
2023-09-20T19:38:11.108Z,99.90
2023-09-20T19:40:58.490Z,99.90
2023-09-20T19:43:46.093Z,99.90
2023-09-20T19:46:33.193Z,99.90
2023-09-20T19:49:22.119Z,99.90
2023-09-20T19:52:09.027Z,99.90
2023-09-20T19:54:56.284Z,99.90
2023-09-20T19:57:43.244Z,99.90
2023-09-20T20:00:30.336Z,99.90
2023-09-20T20:03:17.343Z,99.90
2023-09-20T20:06:04.757Z,99.90
2023-09-20T20:08:56.091Z,99.90
2023-09-20T20:11:44.195Z,99.90
2023-09-20T20:14:31.495Z,99.90
2023-09-20T20:17:21.105Z,99.90
2023-09-20T20:20:16.818Z,99.90
2023-09-20T20:23:06.477Z,99.90
2023-09-20T20:25:54.487Z,99.90
2023-09-20T20:28:41.732Z,99.90
2023-09-20T20:31:28.956Z,99.90
2023-09-20T20:34:15.834Z,99.90
2023-09-20T20:37:02.747Z,99.90
2023-09-20T20:39:49.612Z,99.90
2023-09-20T20:42:36.624Z,99.90
2023-09-20T20:45:23.519Z,99.90
2023-09-20T20:48:10.640Z,99.90
2023-09-20T20:50:58.483Z,99.90
2023-09-20T20:53:48.680Z,99.90
2023-09-20T20:56:38.087Z,99.90
2023-09-20T20:59:25.038Z,99.90
2023-09-20T21:02:14.357Z,99.90
2023-09-20T21:05:01.374Z,99.90
2023-09-20T21:07:48.252Z,99.90
2023-09-20T21:10:40.596Z,99.90
2023-09-20T21:13:27.450Z,99.90
2023-09-20T21:16:16.659Z,99.90
2023-09-20T21:19:03.774Z,99.90
2023-09-20T21:21:50.973Z,99.90
2023-09-20T21:24:37.825Z,99.90
2023-09-20T21:27:24.683Z,99.90
2023-09-20T21:30:12.162Z,99.90
2023-09-20T21:33:02.079Z,99.90
2023-09-20T21:35:49.105Z,99.90
2023-09-20T21:38:36.983Z,99.90
2023-09-20T21:41:23.859Z,99.90
2023-09-20T21:44:11.175Z,99.90
2023-09-20T21:46:58.315Z,99.90
2023-09-20T21:49:46.325Z,99.90
2023-09-20T21:52:33.375Z,99.90
2023-09-20T21:55:21.132Z,99.90
2023-09-20T21:58:08.025Z,99.90
2023-09-20T22:00:56.654Z,99.90
2023-09-20T22:03:43.840Z,99.90
2023-09-20T22:06:30.831Z,99.90
2023-09-20T22:09:17.749Z,99.90
2023-09-20T22:12:05.650Z,99.90
2023-09-20T22:14:52.608Z,99.90
2023-09-20T22:17:39.552Z,99.90
2023-09-20T22:20:27.398Z,99.90
2023-09-20T22:23:14.795Z,99.90
2023-09-20T22:26:01.774Z,99.90
2023-09-20T22:28:48.785Z,99.90
2023-09-20T22:31:37.052Z,99.90
2023-09-20T22:34:24.874Z,99.90
2023-09-20T22:37:11.730Z,99.90
2023-09-20T22:39:58.995Z,99.90
2023-09-20T22:42:48.352Z,99.90
2023-09-20T22:45:38.672Z,99.90
2023-09-20T22:48:28.505Z,99.90
2023-09-20T22:51:17.829Z,99.90
2023-09-20T22:54:08.540Z,99.90
2023-09-20T22:56:55.583Z,99.90
2023-09-20T22:59:42.499Z,99.90
2023-09-20T23:02:33.204Z,99.90
2023-09-20T23:05:22.096Z,99.90
2023-09-20T23:08:09.577Z,99.90
2023-09-20T23:10:57.811Z,99.90
2023-09-20T23:13:45.904Z,99.90
2023-09-20T23:16:33.220Z,99.90
2023-09-20T23:19:20.180Z,99.90
2023-09-20T23:22:07.301Z,99.90
2023-09-20T23:24:56.115Z,99.90
2023-09-20T23:28:01.480Z,99.90
2023-09-20T23:30:59.982Z,99.90
2023-09-20T23:33:49.889Z,99.90
2023-09-20T23:36:39.725Z,99.90
2023-09-20T23:39:31.887Z,99.90
2023-09-20T23:42:18.780Z,99.90
2023-09-20T23:45:12.474Z,99.90
2023-09-20T23:48:02.266Z,99.90
2023-09-20T23:50:49.240Z,99.90
2023-09-20T23:53:37.694Z,99.90
2023-09-20T23:56:24.644Z,99.90
2023-09-20T23:59:12.870Z,99.90
